Time;durP1;ratioP1;P1;durP2;ratioP2;P2;SDS_P1;SDS_P2;PMS_P1;PMS_P2;Temp;Humidity;BMP_temperature;BMP_pressure;BME280_temperature;BME280_humidity;BME280_pressure;Samples;Min_cycle;Max_cycle;Signal;HPM_P1;HPM_P2
2021/01/10 00:01:13;;;;;;;5.03;2.22;;;-0.40;98.40;;;;;;4149755;28;20477;-86
2021/01/10 00:03:15;;;;;;;1.15;1.05;;;-0.40;98.30;;;;;;4149184;28;20184;-86
2021/01/10 00:05:20;;;;;;;3.25;2.33;;;-0.40;98.30;;;;;;4165491;28;20056;-89
2021/01/10 00:07:23;;;;;;;1.65;1.55;;;-0.40;98.40;;;;;;4167291;28;20057;-86
2021/01/10 00:09:24;;;;;;;2.22;2.08;;;-0.40;98.30;;;;;;4181104;28;20477;-86
2021/01/10 00:11:25;;;;;;;2.33;2.17;;;-0.40;98.40;;;;;;4160094;28;20524;-86
2021/01/10 00:13:27;;;;;;;1.40;1.33;;;-0.50;98.40;;;;;;4166933;28;20045;-86
2021/01/10 00:15:28;;;;;;;2.13;1.70;;;-0.50;98.40;;;;;;4164264;28;20049;-85
2021/01/10 00:17:30;;;;;;;1.17;1.17;;;-0.50;98.40;;;;;;4176867;28;20056;-86
2021/01/10 00:19:31;;;;;;;1.73;1.63;;;-0.50;98.50;;;;;;4160067;28;20077;-86
2021/01/10 00:21:36;;;;;;;0.77;0.77;;;-0.50;98.50;;;;;;4145371;28;20060;-86
2021/01/10 00:23:38;;;;;;;1.58;1.48;;;-0.60;98.60;;;;;;4164278;28;20045;-86
2021/01/10 00:25:39;;;;;;;1.52;1.25;;;-0.60;98.60;;;;;;4149824;28;20509;-86
2021/01/10 00:27:40;;;;;;;1.25;1.20;;;-0.60;98.70;;;;;;4148264;28;20160;-87
2021/01/10 00:29:44;;;;;;;1.40;1.40;;;-0.60;98.70;;;;;;4148409;28;20058;-87
2021/01/10 00:31:45;;;;;;;3.83;2.60;;;-0.60;98.60;;;;;;4149786;28;20092;-87
2021/01/10 00:33:47;;;;;;;3.78;2.33;;;-0.60;98.80;;;;;;4148001;28;20058;-87
2021/01/10 00:35:48;;;;;;;2.33;2.13;;;-0.60;98.80;;;;;;4166037;28;20132;-86
2021/01/10 00:37:51;;;;;;;5.30;2.75;;;-0.70;98.70;;;;;;4166347;28;20534;-86
2021/01/10 00:39:53;;;;;;;2.58;1.45;;;-0.70;98.70;;;;;;4164371;28;20084;-87
2021/01/10 00:41:54;;;;;;;2.25;1.70;;;-0.70;98.70;;;;;;4149753;28;20124;-86
2021/01/10 00:43:57;;;;;;;1.13;1.13;;;-0.70;98.70;;;;;;4166501;28;20134;-86
2021/01/10 00:46:00;;;;;;;1.10;1.10;;;-0.70;98.80;;;;;;4181374;28;20501;-87
2021/01/10 00:48:01;;;;;;;0.98;0.93;;;-0.70;98.70;;;;;;4149068;28;20445;-87
2021/01/10 00:50:04;;;;;;;4.75;1.52;;;-0.70;98.70;;;;;;4147974;28;20110;-86
2021/01/10 00:52:06;;;;;;;1.58;1.48;;;-0.70;98.70;;;;;;4148312;28;20146;-87
2021/01/10 00:54:07;;;;;;;1.10;1.00;;;-0.70;98.80;;;;;;4166012;28;20133;-86
2021/01/10 00:56:09;;;;;;;3.53;3.33;;;-0.70;98.80;;;;;;4166166;28;20067;-87
2021/01/10 00:58:10;;;;;;;3.60;3.15;;;-0.70;98.80;;;;;;4148360;28;20103;-86
2021/01/10 01:00:13;;;;;;;2.63;2.42;;;-0.70;98.70;;;;;;4165330;28;20506;-86
2021/01/10 01:02:15;;;;;;;1.30;1.25;;;-0.80;98.80;;;;;;4147159;28;20073;-87
2021/01/10 01:04:17;;;;;;;1.17;1.17;;;-0.70;98.80;;;;;;4165448;28;20045;-87
2021/01/10 01:06:18;;;;;;;1.92;1.83;;;-0.80;98.80;;;;;;4147513;28;20058;-87
2021/01/10 01:08:19;;;;;;;1.77;1.67;;;-0.80;98.90;;;;;;4179040;28;20059;-86
2021/01/10 01:10:21;;;;;;;1.27;1.15;;;-0.80;98.70;;;;;;4181612;28;20884;-86
2021/01/10 01:12:22;;;;;;;1.55;0.60;;;-0.80;99.00;;;;;;4163963;28;20137;-87
2021/01/10 01:14:23;;;;;;;0.77;0.77;;;-0.80;98.80;;;;;;4180824;28;20049;-87
2021/01/10 01:16:25;;;;;;;2.00;1.25;;;-0.80;98.80;;;;;;4148147;28;20060;-87
2021/01/10 01:18:26;;;;;;;2.00;1.75;;;-0.90;98.80;;;;;;4147276;28;20076;-87
2021/01/10 01:20:28;;;;;;;1.30;1.27;;;-0.90;98.70;;;;;;4149622;28;20046;-87
2021/01/10 01:22:29;;;;;;;0.90;0.90;;;-0.90;98.80;;;;;;4149555;28;20128;-88
2021/01/10 01:24:30;;;;;;;5.70;2.17;;;-0.90;98.80;;;;;;4147269;28;20058;-88
2021/01/10 01:26:31;;;;;;;1.30;1.23;;;-0.90;98.70;;;;;;4146939;28;20136;-87
2021/01/10 01:28:33;;;;;;;3.90;2.25;;;-0.90;98.70;;;;;;4167398;28;20056;-86
2021/01/10 01:30:34;;;;;;;1.95;1.73;;;-0.90;98.80;;;;;;4133824;28;20055;-87
2021/01/10 01:32:37;;;;;;;1.95;1.85;;;-0.90;98.80;;;;;;4145846;28;20072;-87
2021/01/10 01:34:38;;;;;;;0.70;0.70;;;-0.90;98.80;;;;;;4180917;28;20382;-88
2021/01/10 01:36:40;;;;;;;2.03;1.92;;;-0.90;98.80;;;;;;4147358;28;20056;-89
2021/01/10 01:38:42;;;;;;;2.75;2.50;;;-0.90;98.50;;;;;;4149486;28;20129;-89
2021/01/10 01:40:43;;;;;;;7.97;2.40;;;-0.90;98.40;;;;;;4149064;28;20060;-87
2021/01/10 01:42:46;;;;;;;1.73;1.40;;;-0.90;98.50;;;;;;4147316;28;20048;-86
2021/01/10 01:44:47;;;;;;;1.52;1.42;;;-0.90;98.70;;;;;;4149674;28;20133;-86
2021/01/10 01:46:48;;;;;;;5.57;1.77;;;-0.90;98.80;;;;;;4147167;28;20048;-86
2021/01/10 01:48:50;;;;;;;1.40;1.15;;;-1.00;98.60;;;;;;4163653;28;20074;-88
2021/01/10 01:50:51;;;;;;;1.15;1.15;;;-0.90;98.70;;;;;;4164049;28;20045;-89
2021/01/10 01:52:53;;;;;;;1.27;1.20;;;-1.00;98.70;;;;;;4148065;28;20129;-87
2021/01/10 01:54:54;;;;;;;6.10;2.65;;;-1.00;98.70;;;;;;4147126;28;20077;-88
2021/01/10 01:56:55;;;;;;;5.97;1.95;;;-1.00;98.70;;;;;;4145111;28;20074;-87
2021/01/10 01:59:03;;;;;;;3.05;2.72;;;-1.00;98.60;;;;;;4146567;28;20450;-88
2021/01/10 02:01:06;;;;;;;1.20;1.20;;;-1.00;98.80;;;;;;4165213;28;20050;-87
2021/01/10 02:03:08;;;;;;;1.05;1.05;;;-1.00;98.50;;;;;;4165600;28;20049;-88
2021/01/10 02:05:11;;;;;;;1.85;1.77;;;-1.00;98.50;;;;;;4147905;28;20132;-88
2021/01/10 02:07:59;;;;;;;0.85;0.85;;;-1.00;98.70;;;;;;4148233;28;20108;-88
2021/01/10 02:10:02;;;;;;;2.55;2.45;;;-1.10;98.70;;;;;;4164161;28;20051;-88
2021/01/10 02:12:04;;;;;;;2.58;2.08;;;-1.10;98.80;;;;;;4181451;28;20049;-89
2021/01/10 02:14:06;;;;;;;2.40;1.50;;;-1.10;98.70;;;;;;4146649;28;20445;-87
2021/01/10 02:16:08;;;;;;;1.48;1.48;;;-1.10;98.80;;;;;;4151092;28;20060;-89
2021/01/10 02:18:09;;;;;;;2.03;1.92;;;-1.10;98.80;;;;;;4148004;28;20058;-88
2021/01/10 02:20:15;;;;;;;1.58;1.48;;;-1.10;98.70;;;;;;4168552;28;20105;-88
2021/01/10 02:22:18;;;;;;;2.25;1.27;;;-1.10;98.80;;;;;;4166372;28;20057;-88
2021/01/10 02:24:19;;;;;;;0.70;0.70;;;-1.10;98.90;;;;;;4149867;28;20113;-88
2021/01/10 02:26:21;;;;;;;2.58;2.38;;;-1.10;98.90;;;;;;4150947;28;20603;-88
2021/01/10 02:28:23;;;;;;;1.58;1.58;;;-1.10;98.80;;;;;;4152589;28;20041;-88
2021/01/10 02:30:24;;;;;;;2.60;1.90;;;-1.10;98.90;;;;;;4149835;28;20085;-88
2021/01/10 02:32:26;;;;;;;2.63;2.42;;;-1.10;98.80;;;;;;4166888;28;20059;-88
2021/01/10 02:34:27;;;;;;;1.60;1.48;;;-1.20;98.80;;;;;;4150611;28;20132;-88
2021/01/10 02:36:59;;;;;;;1.20;1.13;;;-1.10;98.90;;;;;;4150365;28;20490;-87
2021/01/10 02:39:28;;;;;;;1.33;1.25;;;-1.10;98.70;;;;;;4151217;28;20583;-88
2021/01/10 02:41:41;;;;;;;2.85;2.65;;;-1.20;98.80;;;;;;4173595;28;20076;-88
2021/01/10 02:43:48;;;;;;;1.80;1.70;;;-1.20;98.70;;;;;;4183087;28;20076;-88
2021/01/10 02:45:50;;;;;;;3.10;1.98;;;-1.20;98.70;;;;;;4150307;28;20507;-88
2021/01/10 02:47:52;;;;;;;0.98;0.98;;;-1.20;98.90;;;;;;4156641;28;20064;-87
2021/01/10 02:49:53;;;;;;;2.00;1.90;;;-1.20;98.80;;;;;;4169125;28;20059;-87
2021/01/10 02:51:55;;;;;;;2.25;1.67;;;-1.20;98.70;;;;;;4154107;28;20143;-87
2021/01/10 02:53:56;;;;;;;1.40;1.40;;;-1.20;98.70;;;;;;4157678;28;20052;-87
2021/01/10 02:55:57;;;;;;;1.65;1.55;;;-1.20;98.70;;;;;;4162551;28;20136;-87
2021/01/10 02:58:02;;;;;;;2.05;1.95;;;-1.20;99.10;;;;;;4149344;28;20149;-88
2021/01/10 03:00:04;;;;;;;;;;;-1.20;98.80;;;;;;4149242;28;20096;-88
2021/01/10 03:02:06;;;;;;;2.00;1.02;;;-1.20;98.70;;;;;;4160054;28;19925;-87
2021/01/10 03:04:07;;;;;;;2.20;2.10;;;-1.20;98.60;;;;;;4165790;28;20057;-87
2021/01/10 03:06:09;;;;;;;3.20;2.05;;;-1.20;98.60;;;;;;4139205;28;20050;-87
2021/01/10 03:08:10;;;;;;;2.80;2.25;;;-1.20;98.60;;;;;;4149092;28;20053;-88
2021/01/10 03:10:13;;;;;;;2.97;2.80;;;-1.20;98.50;;;;;;4152380;28;20058;-87
2021/01/10 03:12:18;;;;;;;1.77;1.55;;;-1.20;98.50;;;;;;4167124;28;20076;-88
2021/01/10 03:14:20;;;;;;;1.40;1.40;;;-1.20;98.60;;;;;;4185700;28;20056;-87
2021/01/10 03:16:22;;;;;;;1.38;1.38;;;-1.30;98.40;;;;;;4166524;28;20608;-88
2021/01/10 03:18:23;;;;;;;1.52;1.42;;;-1.20;98.60;;;;;;4149372;28;20065;-88
2021/01/10 03:20:25;;;;;;;3.42;3.08;;;-1.30;98.70;;;;;;4165238;28;20045;-87
2021/01/10 03:22:27;;;;;;;4.55;3.53;;;-1.30;98.70;;;;;;4150477;28;20480;-88
2021/01/10 03:24:28;;;;;;;3.55;1.75;;;-1.30;98.60;;;;;;4148545;28;20597;-87
2021/01/10 03:26:30;;;;;;;0.65;0.65;;;-1.30;98.60;;;;;;4149355;28;20077;-87
2021/01/10 03:28:32;;;;;;;1.73;1.63;;;-1.30;98.60;;;;;;4149094;28;20140;-87
2021/01/10 03:30:34;;;;;;;0.73;0.73;;;-1.30;98.60;;;;;;4148954;28;20180;-87
2021/01/10 03:32:36;;;;;;;4.43;1.85;;;-1.30;98.50;;;;;;4164905;28;20127;-88
2021/01/10 03:34:37;;;;;;;3.15;2.55;;;-1.40;98.60;;;;;;4151371;28;20057;-87
2021/01/10 03:36:39;;;;;;;1.88;1.77;;;-1.40;98.70;;;;;;4164931;28;20065;-87
2021/01/10 03:38:40;;;;;;;1.20;1.20;;;-1.40;98.60;;;;;;4150890;28;20053;-87
2021/01/10 03:40:41;;;;;;;2.05;1.90;;;-1.40;98.70;;;;;;4165932;28;20055;-88
2021/01/10 03:42:43;;;;;;;1.42;1.42;;;-1.30;98.70;;;;;;4148792;28;20056;-88
2021/01/10 03:44:44;;;;;;;1.88;1.38;;;-1.40;98.60;;;;;;4149481;28;20112;-87
2021/01/10 03:46:45;;;;;;;1.95;1.85;;;-1.40;98.70;;;;;;4183489;28;20140;-87
2021/01/10 03:48:47;;;;;;;2.17;1.67;;;-1.40;98.70;;;;;;4148489;28;20065;-88
2021/01/10 03:50:48;;;;;;;3.00;1.90;;;-1.40;98.60;;;;;;4150285;28;20064;-87
2021/01/10 03:52:50;;;;;;;1.30;1.20;;;-1.40;98.70;;;;;;4166377;28;20053;-88
2021/01/10 03:54:52;;;;;;;1.63;1.52;;;-1.40;98.60;;;;;;4148512;28;20068;-87
2021/01/10 03:56:53;;;;;;;1.75;1.20;;;-1.40;98.80;;;;;;4148233;28;20061;-89
2021/01/10 03:58:55;;;;;;;3.08;2.70;;;-1.40;98.70;;;;;;4151641;28;20053;-87
2021/01/10 04:00:56;;;;;;;1.23;1.23;;;-1.40;98.60;;;;;;4164759;28;20057;-87
2021/01/10 04:02:58;;;;;;;1.23;1.13;;;-1.50;98.50;;;;;;4196714;28;20474;-88
2021/01/10 04:04:59;;;;;;;1.27;1.17;;;-1.50;98.70;;;;;;4173074;28;20091;-87
2021/01/10 04:07:03;;;;;;;1.55;1.30;;;-1.40;98.60;;;;;;4148287;28;20058;-87
2021/01/10 04:09:05;;;;;;;2.95;1.00;;;-1.40;98.50;;;;;;4148926;28;20145;-87
2021/01/10 04:11:07;;;;;;;0.98;0.98;;;-1.40;98.50;;;;;;4148304;28;20088;-87
2021/01/10 04:13:08;;;;;;;2.78;1.80;;;-1.40;98.40;;;;;;4165167;28;20132;-87
2021/01/10 04:15:09;;;;;;;1.65;1.55;;;-1.40;98.50;;;;;;4146010;28;20052;-88
2021/01/10 04:17:11;;;;;;;2.03;1.92;;;-1.40;98.40;;;;;;4159162;28;20060;-88
2021/01/10 04:19:12;;;;;;;1.75;1.58;;;-1.40;98.40;;;;;;4148902;28;20473;-88
2021/01/10 04:21:14;;;;;;;2.92;1.92;;;-1.40;98.40;;;;;;4165832;28;20514;-87
2021/01/10 04:23:15;;;;;;;1.50;1.42;;;-1.50;98.50;;;;;;4150358;28;20125;-87
2021/01/10 04:25:16;;;;;;;1.33;1.23;;;-1.50;98.60;;;;;;4166172;28;20049;-87
2021/01/10 04:27:18;;;;;;;1.15;1.00;;;-1.50;98.50;;;;;;4148108;28;20058;-87
2021/01/10 04:29:20;;;;;;;0.77;0.77;;;-1.60;98.60;;;;;;4166584;28;20422;-87
2021/01/10 04:31:21;;;;;;;1.77;1.58;;;-1.50;98.60;;;;;;4165166;28;20088;-88
2021/01/10 04:33:23;;;;;;;4.80;2.95;;;-1.50;98.50;;;;;;4147984;28;20081;-86
2021/01/10 04:35:25;;;;;;;1.10;1.10;;;-1.50;98.50;;;;;;4149771;28;20534;-87
2021/01/10 04:37:26;;;;;;;1.13;1.05;;;-1.50;98.60;;;;;;4148316;28;20054;-87
2021/01/10 04:39:28;;;;;;;2.35;2.08;;;-1.50;98.60;;;;;;4147702;28;20072;-87
2021/01/10 04:41:30;;;;;;;1.38;1.35;;;-1.50;98.50;;;;;;4164733;28;20045;-87
2021/01/10 04:43:32;;;;;;;1.42;1.42;;;-1.50;98.50;;;;;;4166586;28;20081;-89
2021/01/10 04:45:33;;;;;;;1.77;1.70;;;-1.60;98.60;;;;;;4131700;28;20053;-86
2021/01/10 04:47:35;;;;;;;1.75;1.65;;;-1.60;98.60;;;;;;4144494;28;20521;-87
2021/01/10 04:49:36;;;;;;;2.47;2.22;;;-1.60;98.60;;;;;;4148691;28;20111;-87
2021/01/10 04:51:38;;;;;;;2.60;2.38;;;-1.60;98.60;;;;;;4147781;28;20050;-87
2021/01/10 04:53:41;;;;;;;1.25;1.25;;;-1.60;98.60;;;;;;4148237;28;20049;-87
2021/01/10 04:55:42;;;;;;;1.45;1.35;;;-1.60;98.70;;;;;;4148673;28;20060;-89
2021/01/10 04:57:44;;;;;;;1.70;1.23;;;-1.60;98.80;;;;;;4147696;28;20449;-87
2021/01/10 04:59:48;;;;;;;1.65;1.48;;;-1.60;98.70;;;;;;4147377;28;20065;-87
2021/01/10 05:01:52;;;;;;;0.88;0.88;;;-1.60;98.70;;;;;;4149225;28;20050;-88
2021/01/10 05:03:54;;;;;;;1.55;1.48;;;-1.60;98.70;;;;;;4147772;28;20088;-88
2021/01/10 05:05:56;;;;;;;1.00;1.00;;;-1.60;98.80;;;;;;4144694;28;20053;-87
2021/01/10 05:07:59;;;;;;;2.22;2.03;;;-1.60;98.80;;;;;;4147936;28;20050;-87
2021/01/10 05:10:00;;;;;;;8.55;3.35;;;-1.60;98.80;;;;;;4132596;28;20054;-88
2021/01/10 05:12:03;;;;;;;1.92;1.77;;;-1.70;98.90;;;;;;4148257;28;20046;-87
2021/01/10 05:14:04;;;;;;;3.15;2.80;;;-1.70;98.70;;;;;;4149029;28;20124;-87
2021/01/10 05:16:06;;;;;;;2.70;2.13;;;-1.70;98.70;;;;;;4147359;28;20421;-87
2021/01/10 05:18:07;;;;;;;3.05;2.75;;;-1.70;98.70;;;;;;4165760;28;20061;-88
2021/01/10 05:20:09;;;;;;;0.93;0.93;;;-1.70;98.70;;;;;;4148318;28;20129;-87
2021/01/10 05:22:10;;;;;;;0.98;0.98;;;-1.60;98.70;;;;;;4147894;28;20537;-87
2021/01/10 05:24:18;;;;;;;2.30;2.13;;;-1.70;98.60;;;;;;4149185;28;20053;-88
2021/01/10 05:26:21;;;;;;;3.00;2.03;;;-1.70;98.70;;;;;;4148398;28;20120;-88
2021/01/10 05:28:22;;;;;;;0.80;0.80;;;-1.70;98.90;;;;;;4150034;28;20076;-87
2021/01/10 05:30:30;;;;;;;0.68;0.68;;;-1.70;98.80;;;;;;4163521;28;20057;-87
2021/01/10 05:32:32;;;;;;;1.95;1.80;;;-1.70;98.80;;;;;;4179515;28;20503;-87
2021/01/10 05:34:33;;;;;;;1.45;1.35;;;-1.70;98.80;;;;;;4150054;28;20486;-86
2021/01/10 05:36:36;;;;;;;1.17;1.17;;;-1.70;99.00;;;;;;4147200;28;20057;-86
2021/01/10 05:38:37;;;;;;;1.65;1.58;;;-1.70;98.80;;;;;;4144690;28;20471;-86
2021/01/10 05:40:39;;;;;;;1.52;1.48;;;-1.70;98.70;;;;;;4139051;28;20132;-87
2021/01/10 05:42:40;;;;;;;2.33;2.08;;;-1.70;98.70;;;;;;4130808;28;20523;-87
2021/01/10 05:44:44;;;;;;;1.75;1.65;;;-1.70;98.70;;;;;;4148259;28;20495;-86
2021/01/10 05:46:45;;;;;;;3.05;2.80;;;-1.70;98.60;;;;;;4181910;28;20135;-86
2021/01/10 05:48:47;;;;;;;1.23;1.17;;;-1.70;98.60;;;;;;4166946;28;20126;-86
2021/01/10 05:50:49;;;;;;;7.93;2.05;;;-1.70;98.70;;;;;;4150120;28;20482;-86
2021/01/10 05:52:50;;;;;;;0.57;0.57;;;-1.70;98.90;;;;;;4167077;28;20057;-86
2021/01/10 05:54:55;;;;;;;0.98;0.98;;;-1.70;98.80;;;;;;4166840;28;20053;-87
2021/01/10 05:56:58;;;;;;;2.88;2.28;;;-1.70;98.70;;;;;;4167418;28;20107;-87
2021/01/10 05:59:00;;;;;;;4.22;1.25;;;-1.70;98.80;;;;;;4151055;28;20125;-87
2021/01/10 06:01:11;;;;;;;1.95;1.85;;;-1.80;98.80;;;;;;4149306;28;20129;-86
2021/01/10 06:03:12;;;;;;;1.35;1.27;;;-1.70;98.80;;;;;;4149004;28;20064;-88
2021/01/10 06:05:16;;;;;;;0.75;0.75;;;-1.70;98.90;;;;;;4150916;28;20053;-87
2021/01/10 06:07:32;;;;;;;0.73;0.73;;;-1.80;98.90;;;;;;4168073;28;20053;-86
2021/01/10 06:09:46;;;;;;;2.60;2.50;;;-1.80;99.00;;;;;;4163524;28;20065;-86
2021/01/10 06:11:47;;;;;;;1.55;1.08;;;-1.80;98.80;;;;;;4150613;28;20046;-87
2021/01/10 06:14:01;;;;;;;1.85;1.73;;;-1.80;98.80;;;;;;4167709;28;20049;-83
2021/01/10 06:16:05;;;;;;;1.27;1.27;;;-1.80;98.90;;;;;;4182471;28;20422;-84
2021/01/10 06:18:06;;;;;;;0.70;0.70;;;-1.80;99.10;;;;;;4184773;28;20517;-84
2021/01/10 06:20:31;;;;;;;3.05;2.83;;;-1.80;99.00;;;;;;4167711;28;20132;-84
2021/01/10 06:22:33;;;;;;;1.38;1.38;;;-1.80;99.10;;;;;;4170310;28;20048;-84
2021/01/10 06:24:36;;;;;;;1.98;1.88;;;-1.80;99.10;;;;;;4150001;28;20061;-84
2021/01/10 06:26:40;;;;;;;1.40;1.40;;;-1.80;99.00;;;;;;4151692;28;20502;-85
2021/01/10 06:28:44;;;;;;;1.00;0.70;;;-1.90;99.20;;;;;;4166910;28;20127;-86
2021/01/10 06:30:52;;;;;;;2.22;1.50;;;-1.90;99.20;;;;;;4149855;28;20402;-86
2021/01/10 06:32:53;;;;;;;6.10;2.38;;;-1.90;99.20;;;;;;4150535;28;20503;-85
2021/01/10 06:34:55;;;;;;;1.85;1.00;;;-1.90;99.30;;;;;;4148670;28;20046;-84
2021/01/10 06:36:56;;;;;;;1.67;1.58;;;-1.80;99.20;;;;;;4165887;28;20065;-83
2021/01/10 06:39:10;;;;;;;0.73;0.73;;;-1.90;99.20;;;;;;4163284;28;20069;-84
2021/01/10 06:41:25;;;;;;;1.05;1.05;;;-1.80;99.20;;;;;;4147658;28;20062;-85
2021/01/10 06:43:26;;;;;;;1.02;1.02;;;-1.90;99.20;;;;;;4183722;28;20416;-85
2021/01/10 06:45:31;;;;;;;1.73;1.63;;;-1.90;99.10;;;;;;4149549;28;20465;-85
2021/01/10 06:47:33;;;;;;;2.20;2.10;;;-1.90;99.30;;;;;;4150398;28;20049;-85
2021/01/10 06:49:35;;;;;;;1.85;1.75;;;-1.80;99.10;;;;;;4149901;28;20056;-84
2021/01/10 06:51:37;;;;;;;5.82;2.40;;;-1.80;99.10;;;;;;4182857;28;20076;-83
2021/01/10 06:53:39;;;;;;;0.82;0.82;;;-1.80;99.10;;;;;;4166665;28;20500;-83
2021/01/10 06:55:40;;;;;;;1.55;1.45;;;-1.80;99.10;;;;;;4185737;28;20127;-82
2021/01/10 06:57:41;;;;;;;2.15;1.73;;;-1.80;99.20;;;;;;4181888;28;20513;-83
2021/01/10 06:59:59;;;;;;;1.67;1.58;;;-1.70;99.40;;;;;;4183026;28;20055;-82
2021/01/10 07:02:01;;;;;;;1.05;1.05;;;-1.70;99.00;;;;;;4183214;28;20072;-83
2021/01/10 07:04:02;;;;;;;1.27;1.27;;;-1.70;98.90;;;;;;4182911;28;20049;-83
2021/01/10 07:06:11;;;;;;;2.80;1.23;;;-1.70;98.80;;;;;;4183443;28;20131;-83
2021/01/10 07:08:45;;;;;;;2.40;2.20;;;-1.70;98.90;;;;;;4166598;28;20049;-83
2021/01/10 07:10:47;;;;;;;1.73;1.40;;;-1.80;98.90;;;;;;4165599;28;20149;-83
2021/01/10 07:12:48;;;;;;;0.70;0.70;;;-1.80;98.80;;;;;;4181430;28;20065;-83
2021/01/10 07:14:51;;;;;;;2.20;2.08;;;-1.70;98.80;;;;;;4183622;28;20128;-83
2021/01/10 07:17:09;;;;;;;1.75;1.58;;;-1.70;98.80;;;;;;4182331;28;20045;-84
2021/01/10 07:19:14;;;;;;;3.30;3.10;;;-1.70;98.90;;;;;;4168008;28;20045;-85
2021/01/10 07:21:34;;;;;;;3.00;2.72;;;-1.70;98.90;;;;;;4165549;28;20059;-84
2021/01/10 07:23:36;;;;;;;1.30;1.30;;;-1.70;98.90;;;;;;4165266;28;20061;-84
2021/01/10 07:25:37;;;;;;;1.52;1.52;;;-1.70;98.90;;;;;;4182146;28;20052;-85
2021/01/10 07:27:38;;;;;;;2.10;1.88;;;-1.70;98.80;;;;;;4180835;28;20547;-86
2021/01/10 07:29:43;;;;;;;2.42;2.22;;;-1.70;98.60;;;;;;4183870;28;20051;-88
2021/01/10 07:32:21;;;;;;;0.82;0.82;;;-1.70;98.60;;;;;;4182852;28;20051;-84
2021/01/10 07:34:23;;;;;;;0.73;0.73;;;-1.60;98.60;;;;;;4131661;28;20046;-85
2021/01/10 07:36:24;;;;;;;1.60;1.58;;;-1.60;98.70;;;;;;4148143;28;20510;-86
2021/01/10 07:38:26;;;;;;;2.90;2.70;;;-1.70;98.60;;;;;;4128844;28;20114;-85
2021/01/10 07:40:29;;;;;;;1.83;1.73;;;-1.60;98.70;;;;;;4159730;28;20050;-82
2021/01/10 07:42:34;;;;;;;3.00;2.28;;;-1.70;98.60;;;;;;4143516;28;20046;-83
2021/01/10 07:44:57;;;;;;;0.65;0.65;;;-1.70;98.80;;;;;;4140831;28;20418;-84
2021/01/10 07:46:58;;;;;;;0.85;0.85;;;-1.70;98.70;;;;;;4126323;28;20043;-84
2021/01/10 07:49:05;;;;;;;1.98;1.88;;;-1.70;98.80;;;;;;4147203;28;20045;-86
2021/01/10 07:51:16;;;;;;;1.63;1.58;;;-1.70;98.90;;;;;;4147423;28;20046;-85
2021/01/10 07:53:17;;;;;;;1.13;1.13;;;-1.70;98.90;;;;;;4142453;28;20422;-87
2021/01/10 07:55:18;;;;;;;1.08;1.08;;;-1.70;99.00;;;;;;4130441;28;20044;-86
2021/01/10 07:57:27;;;;;;;1.33;1.30;;;-1.70;98.80;;;;;;4143418;28;20053;-86
2021/01/10 07:59:38;;;;;;;2.33;2.17;;;-1.70;98.80;;;;;;4126322;28;20077;-89
2021/01/10 08:01:52;;;;;;;3.53;3.30;;;-1.70;98.80;;;;;;4128562;28;20054;-89
2021/01/10 08:04:08;;;;;;;2.35;2.25;;;-1.70;98.80;;;;;;4114330;28;20055;-83
2021/01/10 08:06:10;;;;;;;0.52;0.52;;;-1.70;98.50;;;;;;4115386;28;20054;-89
2021/01/10 08:08:15;;;;;;;1.08;1.08;;;-1.70;98.50;;;;;;4141059;28;20072;-88
2021/01/10 08:10:22;;;;;;;5.35;2.00;;;-1.70;98.60;;;;;;4154000;28;20041;-85
2021/01/10 08:12:33;;;;;;;2.22;2.03;;;-1.70;98.60;;;;;;4181351;28;20057;-89
2021/01/10 08:14:34;;;;;;;1.05;0.98;;;-1.60;98.60;;;;;;4181017;28;20056;-85
2021/01/10 08:16:35;;;;;;;1.45;1.38;;;-1.60;98.50;;;;;;4163733;28;20512;-86
2021/01/10 08:18:41;;;;;;;1.38;1.38;;;-1.60;98.50;;;;;;4181244;28;20087;-86
2021/01/10 08:20:42;;;;;;;;;;;-1.60;98.30;;;;;;4183185;28;20556;-87
2021/01/10 08:22:43;;;;;;;1.15;1.15;;;-1.60;98.50;;;;;;4181418;28;20337;-86
2021/01/10 08:24:45;;;;;;;1.17;1.17;;;-1.60;98.50;;;;;;4148218;28;20133;-88
2021/01/10 08:26:47;;;;;;;2.35;2.17;;;-1.60;98.50;;;;;;4182260;28;20432;-86
2021/01/10 08:29:00;;;;;;;1.65;1.55;;;-1.60;98.50;;;;;;4182622;28;20045;-86
2021/01/10 08:31:03;;;;;;;3.83;1.55;;;-1.60;98.50;;;;;;4133782;28;20055;-88
2021/01/10 08:33:04;;;;;;;1.17;1.10;;;-1.50;98.40;;;;;;4166939;28;20045;-88
2021/01/10 08:35:06;;;;;;;3.63;3.08;;;-1.40;98.10;;;;;;4164761;28;20046;-89
2021/01/10 08:37:08;;;;;;;0.73;0.73;;;-1.50;97.90;;;;;;4163641;28;20061;-87
2021/01/10 08:39:10;;;;;;;2.08;1.27;;;-1.40;97.90;;;;;;4174993;28;20059;-88
2021/01/10 08:41:11;;;;;;;3.92;3.55;;;-1.40;97.90;;;;;;4181270;28;20056;-88
2021/01/10 08:43:12;;;;;;;2.20;2.10;;;-1.50;98.30;;;;;;4164557;28;20056;-93
2021/01/10 08:45:21;;;;;;;3.50;2.63;;;-1.50;98.10;;;;;;4148453;28;20065;-94
2021/01/10 08:47:22;;;;;;;1.23;1.17;;;-1.40;98.10;;;;;;4160060;28;20092;-85
2021/01/10 08:49:25;;;;;;;1.23;1.10;;;-1.40;98.10;;;;;;4171199;28;20051;-92
2021/01/10 08:51:33;;;;;;;2.95;1.58;;;-1.40;97.70;;;;;;4177214;28;20045;-89
2021/01/10 08:53:43;;;;;;;1.90;1.75;;;-1.40;97.90;;;;;;4165767;28;20060;-90
2021/01/10 08:55:44;;;;;;;3.50;2.38;;;-1.40;97.70;;;;;;4183901;28;20142;-84
2021/01/10 08:57:46;;;;;;;1.50;1.40;;;-1.40;98.00;;;;;;4181182;28;20087;-83
2021/01/10 08:59:47;;;;;;;2.22;1.50;;;-1.30;97.80;;;;;;4180291;28;20041;-84
2021/01/10 09:01:48;;;;;;;1.45;1.20;;;-1.30;97.70;;;;;;4180741;28;20460;-84
2021/01/10 09:04:05;;;;;;;2.45;2.25;;;-1.30;97.70;;;;;;4180881;28;20049;-84
2021/01/10 09:06:06;;;;;;;3.17;1.48;;;-1.30;97.90;;;;;;4181946;28;20049;-85
2021/01/10 09:08:29;;;;;;;2.65;2.40;;;-1.20;97.80;;;;;;4163954;28;20049;-84
2021/01/10 09:10:30;;;;;;;2.95;1.88;;;-1.30;97.50;;;;;;4180661;28;20040;-84
2021/01/10 09:12:39;;;;;;;1.38;1.27;;;-1.20;97.60;;;;;;4163432;28;20140;-84
2021/01/10 09:14:45;;;;;;;3.65;2.05;;;-1.20;97.70;;;;;;4164454;28;20044;-84
2021/01/10 09:16:46;;;;;;;1.05;0.93;;;-1.20;97.50;;;;;;4165354;28;20375;-84
2021/01/10 09:18:48;;;;;;;1.98;1.88;;;-1.20;97.60;;;;;;4180852;28;20041;-84
2021/01/10 09:21:02;;;;;;;0.93;0.93;;;-1.10;97.10;;;;;;4164091;28;20045;-84
2021/01/10 09:23:09;;;;;;;1.58;1.20;;;-1.10;97.20;;;;;;4182449;28;20045;-84
2021/01/10 09:25:12;;;;;;;4.13;1.38;;;-1.10;97.30;;;;;;4183890;28;20103;-84
2021/01/10 09:27:14;;;;;;;0.75;0.75;;;-1.10;97.10;;;;;;4183220;28;20055;-84
2021/01/10 09:29:18;;;;;;;3.20;3.00;;;-1.10;97.10;;;;;;4167237;28;20116;-84
2021/01/10 09:31:20;;;;;;;0.85;0.80;;;-1.10;96.80;;;;;;4184376;28;20083;-84
2021/01/10 09:33:25;;;;;;;2.15;1.08;;;-1.10;97.00;;;;;;4184099;28;20049;-84
2021/01/10 09:35:26;;;;;;;3.13;2.38;;;-1.10;96.90;;;;;;4184911;28;20045;-84
2021/01/10 09:37:31;;;;;;;1.35;1.27;;;-1.00;97.20;;;;;;4184925;28;20521;-83
2021/01/10 09:39:40;;;;;;;1.40;1.38;;;-1.00;97.20;;;;;;4185449;28;20051;-83
2021/01/10 09:41:52;;;;;;;1.73;1.63;;;-1.00;96.80;;;;;;4187036;28;20045;-83
2021/01/10 09:43:54;;;;;;;1.33;1.23;;;-1.00;96.70;;;;;;4188081;28;20123;-84
2021/01/10 09:45:56;;;;;;;1.45;1.45;;;-0.90;96.30;;;;;;4187213;28;20480;-85
2021/01/10 09:47:57;;;;;;;1.52;1.42;;;-0.90;96.40;;;;;;4184948;28;20124;-84
2021/01/10 09:49:58;;;;;;;2.58;1.35;;;-0.90;96.40;;;;;;4185077;28;20084;-82
2021/01/10 09:52:10;;;;;;;2.70;2.60;;;-0.90;96.70;;;;;;4185987;28;20061;-83
2021/01/10 09:54:29;;;;;;;2.60;2.38;;;-0.90;96.60;;;;;;4181370;28;20055;-83
2021/01/10 09:56:40;;;;;;;1.13;1.13;;;-0.90;96.40;;;;;;4169236;28;20130;-90
2021/01/10 09:58:41;;;;;;;1.73;1.55;;;-0.90;96.30;;;;;;4184677;28;20049;-89
2021/01/10 10:00:55;;;;;;;3.70;2.58;;;-0.90;96.20;;;;;;4185040;28;20091;-83
2021/01/10 10:03:07;;;;;;;1.63;1.48;;;-0.80;96.50;;;;;;4185408;28;20108;-91
2021/01/10 10:05:15;;;;;;;3.00;1.20;;;-0.80;96.30;;;;;;4169671;28;20052;-85
2021/01/10 10:07:48;;;;;;;;;;;-0.80;96.20;;;;;;4184822;28;20539;-86
2021/01/10 10:09:52;;;;;;;1.75;1.65;;;-0.80;96.40;;;;;;4151615;28;19925;-84
2021/01/10 10:12:06;;;;;;;0.50;0.50;;;-0.80;96.20;;;;;;4151894;28;20076;-87
2021/01/10 10:14:10;;;;;;;1.05;1.05;;;-0.80;95.90;;;;;;4137169;28;20077;-87
2021/01/10 10:16:17;;;;;;;2.20;2.00;;;-0.90;95.90;;;;;;4128984;28;20046;-87
2021/01/10 10:18:23;;;;;;;1.55;1.45;;;-0.80;96.20;;;;;;4134820;28;20802;-94
2021/01/10 10:20:25;;;;;;;3.42;2.28;;;-0.80;96.40;;;;;;4153216;28;20109;-87
2021/01/10 10:22:35;;;;;;;1.83;1.73;;;-0.80;96.30;;;;;;4136707;28;20050;-88
2021/01/10 10:24:37;;;;;;;1.20;1.20;;;-0.80;95.70;;;;;;4122213;28;20054;-92
2021/01/10 10:26:42;;;;;;;1.33;1.27;;;-0.70;95.80;;;;;;4153020;28;20054;-91
2021/01/10 10:28:45;;;;;;;1.67;1.58;;;-0.80;95.50;;;;;;4120194;28;20058;-96
2021/01/10 10:30:49;;;;;;;1.35;0.95;;;-0.80;95.60;;;;;;4103444;28;20443;-91
2021/01/10 10:32:52;;;;;;;3.60;1.65;;;-0.80;95.60;;;;;;4136640;28;20104;-88
2021/01/10 10:34:54;;;;;;;3.80;3.05;;;-0.80;95.80;;;;;;4119902;28;20565;-87
2021/01/10 10:37:00;;;;;;;1.88;1.77;;;-0.80;95.70;;;;;;4148794;28;20526;-88
2021/01/10 10:39:04;;;;;;;;;;;-0.70;95.90;;;;;;4153500;28;20038;-93
2021/01/10 10:41:09;;;;;;;0.60;0.60;;;-0.70;95.70;;;;;;4136609;28;19921;-87
2021/01/10 10:43:12;;;;;;;0.95;0.95;;;-0.70;95.40;;;;;;4117425;28;20054;-89
2021/01/10 10:45:15;;;;;;;2.55;1.42;;;-0.60;95.20;;;;;;4162626;28;20114;-90
2021/01/10 10:47:17;;;;;;;0.90;0.90;;;-0.70;95.10;;;;;;4163753;28;20049;-91